Terminal Aerodrome Forecast
Issued by NWS

Home | Current Version | Previous Version | Text Only | Print | Product List | Glossary On
Versions: 1 2 3 4 5 6 7 8 9 10 11 12 13 14 15 16 17
000
FTUS44 KLZK 261700 RRA
TAFADF
TAF
KADF 261749Z 2618/2718 15006KT 5SM -RA BR SCT004 BKN015
     FM262000 13009KT 4SM -RA BR OVC012
     FM270100 15005KT 4SM -RA OVC008 WS020/19045KT
     FM271300 24004KT 2SM BR OVC004=

USA.gov is the U.S. government's official web portal to all federal, state and local government web resources and services.